Time;durP1;ratioP1;P1;durP2;ratioP2;P2;SDS_P1;SDS_P2;PMS_P1;PMS_P2;Temp;Humidity;BMP_temperature;BMP_pressure;BME280_temperature;BME280_humidity;BME280_pressure;Samples;Min_cycle;Max_cycle;Signal;HPM_P1;HPM_P2
2021/06/21 00:00:50;;;;;;;8.47;3.23;;;;;;;16.74;100.00;94877.19;5041261;28;20223;-67
2021/06/21 00:03:18;;;;;;;9.50;4.80;;;;;;;16.59;100.00;94873.44;5039448;28;20453;-67
2021/06/21 00:05:46;;;;;;;16.83;3.93;;;;;;;16.48;100.00;94867.13;5031980;28;20308;-67
2021/06/21 00:08:15;;;;;;;6.30;3.63;;;;;;;16.48;100.00;94857.28;5039572;28;20677;-67
2021/06/21 00:10:44;;;;;;;8.10;2.13;;;;;;;16.51;100.00;94845.34;5036064;28;20490;-67
2021/06/21 00:13:12;;;;;;;6.93;2.30;;;;;;;16.56;100.00;94856.09;5041572;28;20290;-67
2021/06/21 00:15:41;;;;;;;8.83;3.83;;;;;;;16.53;100.00;94845.88;5037118;28;20310;-67
2021/06/21 00:18:12;;;;;;;5.37;4.80;;;;;;;16.56;100.00;94837.44;5041508;28;20219;-67
2021/06/21 00:20:40;;;;;;;6.30;3.43;;;;;;;16.61;100.00;94837.50;5051167;28;20228;-67
2021/06/21 00:23:08;;;;;;;5.20;4.30;;;;;;;16.61;100.00;94826.03;5037343;28;20224;-67
2021/06/21 00:25:36;;;;;;;4.90;3.30;;;;;;;16.59;100.00;94820.16;5028027;28;20251;-67
2021/06/21 00:28:04;;;;;;;5.67;3.50;;;;;;;16.61;100.00;94808.22;5028838;28;20310;-67
2021/06/21 00:30:32;;;;;;;8.37;5.07;;;;;;;16.71;100.00;94792.41;5035684;28;20219;-67
2021/06/21 00:33:02;;;;;;;10.13;3.50;;;;;;;16.65;100.00;94782.72;5036459;28;20234;-67
2021/06/21 00:35:31;;;;;;;6.97;3.53;;;;;;;16.64;100.00;94774.94;5033794;28;20651;-67
2021/06/21 00:37:59;;;;;;;3.83;3.40;;;;;;;16.61;100.00;94786.09;5037201;28;20258;-67
2021/06/21 00:40:27;;;;;;;3.77;3.10;;;;;;;16.62;100.00;94793.03;5034323;28;20315;-67
2021/06/21 00:42:55;;;;;;;6.47;2.97;;;;;;;16.63;100.00;94795.44;5039214;28;20219;-67
2021/06/21 00:45:24;;;;;;;5.47;3.00;;;;;;;16.59;100.00;94789.00;5038105;28;20341;-68
2021/06/21 00:47:54;;;;;;;3.47;2.77;;;;;;;16.59;100.00;94781.00;5032116;28;20230;-67
2021/06/21 00:50:28;;;;;;;4.93;2.80;;;;;;;16.60;100.00;94779.16;5034539;28;20502;-67
2021/06/21 00:52:57;;;;;;;6.40;3.80;;;;;;;16.62;100.00;94787.69;5035247;28;20219;-67
2021/06/21 00:55:30;;;;;;;4.07;2.13;;;;;;;16.64;100.00;94786.44;5043581;28;20321;-67
2021/06/21 00:57:58;;;;;;;5.13;2.77;;;;;;;16.57;100.00;94801.75;5038084;28;20308;-67
2021/06/21 01:00:28;;;;;;;6.67;3.07;;;;;;;16.59;100.00;94799.66;5039398;28;20718;-67
2021/06/21 01:03:03;;;;;;;3.20;2.40;;;;;;;16.71;100.00;94808.41;5034014;28;20218;-67
2021/06/21 01:05:35;;;;;;;9.30;2.80;;;;;;;16.82;100.00;94800.56;5040524;28;20310;-67
2021/06/21 01:08:05;;;;;;;6.40;3.27;;;;;;;16.75;100.00;94801.53;5029523;28;20220;-67
2021/06/21 01:10:34;;;;;;;3.07;2.27;;;;;;;16.69;100.00;94793.72;5038043;28;20216;-67
2021/06/21 01:13:27;;;;;;;4.73;2.17;;;;;;;16.71;100.00;94786.28;5034525;28;20215;-67
2021/06/21 01:16:06;;;;;;;4.60;2.90;;;;;;;16.69;100.00;94783.06;5037670;28;20229;-67
2021/06/21 01:18:38;;;;;;;3.03;1.83;;;;;;;16.69;100.00;94796.38;5037247;28;20223;-67
2021/06/21 01:21:36;;;;;;;2.33;2.07;;;;;;;16.67;100.00;94798.44;5035149;28;20799;-66
2021/06/21 01:24:32;;;;;;;5.77;3.70;;;;;;;16.67;100.00;94791.25;5040937;28;20226;-67
2021/06/21 01:27:12;;;;;;;9.30;4.13;;;;;;;16.73;100.00;94816.97;5036408;28;20593;-67
2021/06/21 01:29:58;;;;;;;5.00;2.27;;;;;;;16.71;100.00;94816.38;5034057;28;20219;-67
2021/06/21 01:32:40;;;;;;;5.30;2.07;;;;;;;16.68;100.00;94822.22;5033503;28;20279;-67
2021/06/21 01:35:12;;;;;;;7.17;3.70;;;;;;;16.59;100.00;94818.31;5032100;28;20735;-67
2021/06/21 01:37:40;;;;;;;10.10;3.57;;;;;;;16.55;100.00;94814.53;5035571;28;20308;-67
2021/06/21 01:40:09;;;;;;;3.67;2.20;;;;;;;16.61;100.00;94813.53;5041848;28;20691;-67
2021/06/21 01:42:40;;;;;;;7.97;3.10;;;;;;;16.56;100.00;94810.81;5025334;28;20216;-67
2021/06/21 01:45:10;;;;;;;6.63;2.40;;;;;;;16.57;100.00;94812.41;5039594;28;20231;-67
2021/06/21 01:47:42;;;;;;;12.20;4.03;;;;;;;16.63;100.00;94822.09;5031044;28;20423;-66
2021/06/21 01:50:11;;;;;;;4.43;2.93;;;;;;;16.74;100.00;94821.25;5034609;28;20430;-67
2021/06/21 01:52:43;;;;;;;3.70;2.43;;;;;;;16.85;100.00;94813.41;5037808;28;20461;-67
2021/06/21 01:55:15;;;;;;;8.43;2.57;;;;;;;16.92;100.00;94809.53;5032786;28;20227;-67
2021/06/21 01:57:46;;;;;;;2.20;1.83;;;;;;;16.87;100.00;94811.31;5033561;28;20269;-67
2021/06/21 02:00:15;;;;;;;12.13;2.67;;;;;;;16.86;100.00;94815.03;5037962;28;20250;-67
2021/06/21 02:02:46;;;;;;;4.03;2.60;;;;;;;16.88;100.00;94818.25;5030788;28;20580;-68
2021/06/21 02:05:16;;;;;;;3.20;3.00;;;;;;;16.84;100.00;94817.13;5031772;28;20227;-67
2021/06/21 02:07:48;;;;;;;4.53;2.00;;;;;;;16.81;100.00;94823.72;5028335;28;20328;-67
2021/06/21 02:10:18;;;;;;;2.53;1.73;;;;;;;16.83;100.00;94831.50;5030527;28;20234;-67
2021/06/21 02:12:50;;;;;;;3.47;1.70;;;;;;;16.85;100.00;94826.75;5033392;28;20307;-67
2021/06/21 02:15:18;;;;;;;5.40;2.47;;;;;;;16.85;100.00;94829.41;5037793;28;20716;-67
2021/06/21 02:17:53;;;;;;;5.20;2.80;;;;;;;16.91;100.00;94833.75;5038180;28;20219;-67
2021/06/21 02:20:23;;;;;;;8.60;2.93;;;;;;;16.99;100.00;94846.66;5054707;28;20319;-67
2021/06/21 02:22:52;;;;;;;4.30;3.20;;;;;;;16.97;99.64;94852.25;5033740;28;20995;-66
2021/06/21 02:25:21;;;;;;;6.30;2.57;;;;;;;17.10;99.92;94852.94;5038900;28;20739;-67
2021/06/21 02:27:50;;;;;;;7.60;2.77;;;;;;;17.03;99.68;94853.13;5035376;28;20246;-67
2021/06/21 02:30:19;;;;;;;5.00;2.90;;;;;;;16.98;99.92;94853.84;5032449;28;20276;-67
2021/06/21 02:32:48;;;;;;;7.67;3.60;;;;;;;16.90;100.00;94854.25;5042070;28;20280;-67
2021/06/21 02:35:18;;;;;;;9.07;2.10;;;;;;;16.84;100.00;94863.25;5042248;28;20233;-67
2021/06/21 02:37:47;;;;;;;5.33;1.87;;;;;;;16.94;100.00;94866.06;5026349;28;20259;-67
2021/06/21 02:40:17;;;;;;;5.93;1.87;;;;;;;16.81;100.00;94870.88;5035769;28;20247;-67
2021/06/21 02:42:46;;;;;;;3.40;1.80;;;;;;;16.78;100.00;94862.34;5024667;28;20243;-67
2021/06/21 02:45:14;;;;;;;4.23;2.47;;;;;;;16.75;100.00;94862.03;5036673;28;20680;-67
2021/06/21 02:47:44;;;;;;;4.43;2.00;;;;;;;16.74;100.00;94869.22;5042764;28;20568;-67
2021/06/21 02:50:14;;;;;;;3.97;3.13;;;;;;;16.81;100.00;94881.53;5035927;28;20219;-67
2021/06/21 02:53:07;;;;;;;9.70;4.07;;;;;;;16.77;100.00;94882.03;5042855;28;20262;-65
2021/06/21 02:55:42;;;;;;;14.00;4.67;;;;;;;16.74;100.00;94871.88;5042838;28;20243;-65
2021/06/21 02:58:15;;;;;;;5.40;3.00;;;;;;;16.73;100.00;94880.09;5035707;28;20273;-65
2021/06/21 03:00:46;;;;;;;4.20;2.23;;;;;;;16.69;100.00;94874.44;5032845;28;20215;-64
2021/06/21 03:03:14;;;;;;;7.20;2.97;;;;;;;16.68;100.00;94883.47;5043375;28;20219;-65
2021/06/21 03:05:46;;;;;;;3.80;2.03;;;;;;;16.67;100.00;94881.84;5042368;28;20828;-66
2021/06/21 03:08:19;;;;;;;9.67;3.47;;;;;;;16.65;100.00;94878.63;5039446;28;20223;-65
2021/06/21 03:10:48;;;;;;;7.17;2.77;;;;;;;16.65;100.00;94875.94;5046565;28;20222;-65
2021/06/21 03:13:20;;;;;;;10.53;2.80;;;;;;;16.50;100.00;94881.00;5045458;28;20301;-65
2021/06/21 03:15:50;;;;;;;5.77;2.10;;;;;;;16.52;100.00;94878.91;5044674;28;20576;-65
2021/06/21 03:18:21;;;;;;;6.83;2.30;;;;;;;16.57;100.00;94873.69;5040026;28;20317;-64
2021/06/21 03:20:51;;;;;;;10.23;2.53;;;;;;;16.51;100.00;94874.63;5045629;28;20285;-63
2021/06/21 03:23:21;;;;;;;3.63;2.07;;;;;;;16.47;100.00;94881.50;5046117;28;20234;-64
2021/06/21 03:25:53;;;;;;;5.30;1.40;;;;;;;16.47;100.00;94881.50;5028159;28;20255;-65
2021/06/21 03:28:23;;;;;;;8.73;3.43;;;;;;;16.58;100.00;94890.47;5038852;28;20272;-65
2021/06/21 03:30:53;;;;;;;4.93;2.60;;;;;;;16.61;100.00;94897.97;5044893;28;20635;-65
2021/06/21 03:33:22;;;;;;;3.43;1.83;;;;;;;16.63;100.00;94896.66;5027143;28;20298;-64
2021/06/21 03:35:51;;;;;;;6.03;2.03;;;;;;;16.57;100.00;94881.66;5038641;28;20310;-64
2021/06/21 03:38:24;;;;;;;4.40;2.47;;;;;;;16.73;100.00;94896.06;5045674;28;20296;-65
2021/06/21 03:40:57;;;;;;;4.57;3.17;;;;;;;16.71;99.78;94896.31;5019796;28;20223;-63
2021/06/21 03:43:27;;;;;;;2.90;2.03;;;;;;;16.65;99.68;94889.28;5027114;28;20728;-65
2021/06/21 03:45:58;;;;;;;6.37;1.90;;;;;;;16.64;100.00;94887.66;5027501;28;20723;-64
2021/06/21 03:48:26;;;;;;;3.90;2.00;;;;;;;16.64;100.00;94890.31;5034000;28;20709;-65
2021/06/21 03:50:55;;;;;;;10.37;2.33;;;;;;;16.62;99.67;94895.06;5044278;28;20245;-65
2021/06/21 03:53:27;;;;;;;8.23;2.30;;;;;;;16.59;99.49;94903.53;5035491;28;20255;-65
2021/06/21 03:55:55;;;;;;;4.80;2.47;;;;;;;16.52;99.38;94900.22;5041216;28;20781;-64
2021/06/21 03:58:23;;;;;;;5.57;2.23;;;;;;;16.39;99.29;94914.63;5048212;28;20421;-63
2021/06/21 04:00:52;;;;;;;9.27;2.57;;;;;;;16.30;99.80;94917.91;5040106;28;20756;-64
2021/06/21 04:03:20;;;;;;;10.00;2.97;;;;;;;16.25;99.78;94920.47;5040544;28;20219;-65
2021/06/21 04:05:48;;;;;;;9.63;2.53;;;;;;;16.17;99.45;94919.78;5045899;28;20656;-65
2021/06/21 04:08:17;;;;;;;5.47;1.67;;;;;;;16.22;99.47;94927.09;5034267;28;20313;-64
2021/06/21 04:10:47;;;;;;;3.47;2.83;;;;;;;16.21;99.10;94936.94;5032211;28;20233;-65
2021/06/21 04:13:16;;;;;;;5.27;2.23;;;;;;;16.21;99.01;94944.91;5031964;28;20306;-65
2021/06/21 04:15:45;;;;;;;4.90;2.17;;;;;;;16.23;98.94;94949.19;5034960;28;20254;-64
2021/06/21 04:18:15;;;;;;;7.60;2.13;;;;;;;16.19;98.97;94947.00;5035927;28;20782;-64
2021/06/21 04:20:46;;;;;;;3.03;1.40;;;;;;;16.19;98.78;94947.00;5028896;28;20235;-64
2021/06/21 04:23:15;;;;;;;2.80;1.57;;;;;;;16.18;98.68;94955.22;5028327;28;20725;-65
2021/06/21 04:25:43;;;;;;;3.77;1.57;;;;;;;16.19;98.39;94965.66;5027017;28;20251;-65
2021/06/21 04:28:12;;;;;;;3.50;1.63;;;;;;;16.24;98.03;94956.13;5036957;28;20264;-63
2021/06/21 04:30:40;;;;;;;2.93;2.00;;;;;;;16.28;97.85;94949.31;5037305;28;20251;-64
2021/06/21 04:33:08;;;;;;;2.77;1.67;;;;;;;16.34;97.36;94954.47;5040513;28;20314;-63
2021/06/21 04:35:36;;;;;;;3.90;1.30;;;;;;;16.44;97.01;94948.53;5044999;28;20356;-65
2021/06/21 04:38:04;;;;;;;2.80;2.60;;;;;;;16.51;96.69;94946.53;5035986;28;20329;-64
2021/06/21 04:40:34;;;;;;;3.80;2.10;;;;;;;16.65;95.91;94939.88;5038968;28;20574;-65
2021/06/21 04:43:04;;;;;;;5.20;1.63;;;;;;;16.77;95.47;94923.88;5035894;28;20310;-63
2021/06/21 04:45:33;;;;;;;2.83;2.07;;;;;;;16.92;95.72;94931.31;5040788;28;20633;-65
2021/06/21 04:48:02;;;;;;;3.83;1.10;;;;;;;17.06;95.17;94919.28;5036593;28;20245;-63
2021/06/21 04:50:30;;;;;;;2.57;2.03;;;;;;;17.17;94.04;94928.25;5042993;28;20215;-64
2021/06/21 04:52:58;;;;;;;1.30;0.80;;;;;;;17.28;93.88;94925.53;5037504;28;20227;-65
2021/06/21 04:55:27;;;;;;;2.77;1.77;;;;;;;17.43;93.31;94927.59;5040029;28;20280;-64
2021/06/21 04:57:55;;;;;;;4.70;1.77;;;;;;;17.56;91.09;94923.78;5044434;28;20534;-63
2021/06/21 05:00:25;;;;;;;6.13;2.50;;;;;;;17.70;90.95;94916.25;5033537;28;20362;-64
2021/06/21 05:02:55;;;;;;;10.10;3.20;;;;;;;17.81;90.64;94912.66;5037045;28;20231;-63
2021/06/21 05:05:23;;;;;;;3.00;0.97;;;;;;;17.93;90.94;94909.91;5025346;28;20231;-65
2021/06/21 05:07:54;;;;;;;4.73;2.10;;;;;;;18.07;91.15;94913.81;5025353;28;20246;-65
2021/06/21 05:10:24;;;;;;;5.13;1.50;;;;;;;18.31;90.25;94912.50;5040372;28;20621;-65
2021/06/21 05:12:52;;;;;;;6.07;1.87;;;;;;;18.44;89.34;94916.63;5043821;28;20688;-64
2021/06/21 05:15:21;;;;;;;3.77;1.23;;;;;;;18.47;88.22;94918.81;5045499;28;20349;-65
2021/06/21 05:17:49;;;;;;;2.30;1.57;;;;;;;18.52;88.17;94918.06;5035251;28;20545;-65
2021/06/21 05:20:19;;;;;;;2.77;1.63;;;;;;;18.44;87.79;94921.97;5043580;28;20230;-65
2021/06/21 05:22:48;;;;;;;5.70;1.00;;;;;;;18.44;87.89;94928.13;5041173;28;20557;-64
2021/06/21 05:25:17;;;;;;;6.00;1.30;;;;;;;18.41;88.55;94925.97;5040004;28;20703;-65
2021/06/21 05:27:45;;;;;;;3.60;1.70;;;;;;;18.40;88.57;94916.34;5044549;28;20223;-64
2021/06/21 05:30:15;;;;;;;6.33;2.10;;;;;;;18.39;88.21;94920.06;5045260;28;20758;-65
2021/06/21 05:32:43;;;;;;;4.50;2.20;;;;;;;18.54;87.38;94926.63;5044660;28;20435;-65
2021/06/21 05:35:15;;;;;;;7.30;2.37;;;;;;;18.65;87.02;94917.66;5032040;28;20281;-64
2021/06/21 05:37:46;;;;;;;3.57;1.83;;;;;;;18.70;86.78;94925.75;5026779;28;20220;-64
2021/06/21 05:40:15;;;;;;;4.57;1.33;;;;;;;18.62;87.53;94929.66;5032715;28;20237;-64
2021/06/21 05:42:43;;;;;;;5.33;2.00;;;;;;;18.60;88.07;94925.63;5025115;28;20616;-64
2021/06/21 05:45:13;;;;;;;3.00;1.53;;;;;;;18.57;88.04;94923.47;5029069;28;20229;-64
2021/06/21 05:47:40;;;;;;;5.63;2.27;;;;;;;18.62;87.03;94928.84;5037731;28;20351;-64
2021/06/21 05:50:10;;;;;;;3.40;2.10;;;;;;;18.62;87.40;94934.19;5025909;28;20657;-65
2021/06/21 05:52:38;;;;;;;8.07;3.17;;;;;;;18.76;86.77;94940.78;5033021;28;20836;-67
2021/06/21 05:55:09;;;;;;;1.80;1.70;;;;;;;18.93;84.61;94949.50;5037109;28;20362;-67
2021/06/21 05:57:37;;;;;;;7.73;3.40;;;;;;;19.08;83.90;94958.72;5043789;28;20258;-68
2021/06/21 06:00:07;;;;;;;5.67;2.93;;;;;;;19.21;84.12;94951.09;5044634;28;20280;-67
2021/06/21 06:02:51;;;;;;;1.70;1.60;;;;;;;19.36;81.98;94950.41;5042861;28;20222;-67
2021/06/21 06:05:20;;;;;;;7.70;2.47;;;;;;;19.45;82.63;94946.19;5038813;28;20234;-67
2021/06/21 06:07:49;;;;;;;9.90;2.43;;;;;;;19.53;83.56;94951.06;5034311;28;20719;-68
2021/06/21 06:10:18;;;;;;;7.27;1.40;;;;;;;19.65;82.49;94950.91;5028889;28;20258;-67
2021/06/21 06:12:46;;;;;;;4.33;1.60;;;;;;;19.70;81.46;94947.47;5032880;28;20692;-68
2021/06/21 06:15:17;;;;;;;5.40;2.53;;;;;;;19.78;81.06;94937.06;5039785;28;20219;-67
2021/06/21 06:17:46;;;;;;;10.57;2.17;;;;;;;19.89;80.79;94945.97;5024730;28;20215;-67
2021/06/21 06:20:14;;;;;;;3.00;1.43;;;;;;;19.94;80.74;94935.31;5036374;28;20750;-67
2021/06/21 06:22:43;;;;;;;7.90;3.10;;;;;;;20.12;80.44;94942.09;5044377;28;20280;-64
2021/06/21 06:25:13;;;;;;;6.97;2.70;;;;;;;20.21;80.15;94942.38;5030644;28;20755;-65
2021/06/21 06:27:44;;;;;;;5.40;1.53;;;;;;;20.29;78.97;94941.88;5023356;28;20216;-64
2021/06/21 06:30:13;;;;;;;2.90;2.47;;;;;;;20.41;78.80;94947.84;5028629;28;20776;-65
2021/06/21 06:32:41;;;;;;;4.73;1.90;;;;;;;20.46;78.73;94955.91;5043452;28;20223;-65
2021/06/21 06:35:11;;;;;;;6.27;1.97;;;;;;;20.56;77.86;94963.97;5047440;28;20317;-65
2021/06/21 06:37:39;;;;;;;2.43;1.37;;;;;;;20.60;77.44;94970.44;5038701;28;20662;-64
2021/06/21 06:40:08;;;;;;;5.07;2.30;;;;;;;20.67;76.96;94968.31;5050810;28;21327;-64
2021/06/21 06:42:36;;;;;;;9.03;2.30;;;;;;;20.68;77.67;94972.63;5028297;28;20498;-64
2021/06/21 06:45:06;;;;;;;5.70;1.30;;;;;;;20.78;77.54;94971.03;5026686;28;20223;-65
2021/06/21 06:47:34;;;;;;;5.63;2.77;;;;;;;20.72;78.61;94965.63;5028935;28;20645;-65
2021/06/21 06:50:03;;;;;;;11.87;3.87;;;;;;;20.78;76.71;94965.66;5043425;28;20322;-65
2021/06/21 06:52:32;;;;;;;7.83;1.60;;;;;;;20.90;75.92;94960.84;5027585;28;20629;-64
2021/06/21 06:57:48;;;;;;;5.30;2.57;;;;;;;20.92;75.18;94956.03;5046867;28;20550;-66
2021/06/21 07:00:18;;;;;;;11.97;2.13;;;;;;;21.00;76.17;94955.50;5027657;28;20671;-65
2021/06/21 07:02:47;;;;;;;6.20;3.23;;;;;;;21.10;74.75;94954.72;5027764;28;20223;-66
2021/06/21 07:05:15;;;;;;;5.10;2.47;;;;;;;21.28;76.36;94957.72;5029014;28;20254;-65
2021/06/21 07:07:44;;;;;;;3.00;1.97;;;;;;;21.48;73.60;94958.78;5028167;28;20251;-65
2021/06/21 07:10:13;;;;;;;5.53;3.13;;;;;;;21.31;76.06;94952.91;5046513;28;20293;-66
2021/06/21 07:12:42;;;;;;;5.03;1.27;;;;;;;21.49;75.28;94947.00;5046454;28;20223;-66
2021/06/21 07:15:11;;;;;;;7.60;1.70;;;;;;;21.78;74.34;94949.91;5043022;28;20258;-66
2021/06/21 07:17:40;;;;;;;5.50;1.30;;;;;;;21.91;73.66;94945.84;5027572;28;20246;-64
2021/06/21 07:20:09;;;;;;;8.13;2.77;;;;;;;22.01;73.70;94945.81;5028003;28;20227;-66
2021/06/21 07:22:37;;;;;;;4.03;2.00;;;;;;;22.11;73.90;94952.00;5027786;28;20227;-64
2021/06/21 07:25:06;;;;;;;6.40;1.60;;;;;;;22.14;71.86;94956.03;5040719;28;20231;-65
2021/06/21 07:27:34;;;;;;;3.70;2.73;;;;;;;21.89;73.46;94953.38;5047519;28;20230;-66
2021/06/21 07:30:04;;;;;;;6.13;2.10;;;;;;;21.98;72.01;94965.19;5045785;28;20646;-65
2021/06/21 07:32:32;;;;;;;5.63;3.23;;;;;;;22.00;72.44;94955.75;5041900;28;20226;-64
2021/06/21 07:35:02;;;;;;;2.60;1.87;;;;;;;21.99;69.95;94954.16;5046964;28;20230;-65
2021/06/21 07:37:30;;;;;;;11.70;1.80;;;;;;;22.18;71.17;94957.09;5039728;28;20310;-65
2021/06/21 07:39:58;;;;;;;2.60;0.90;;;;;;;22.51;70.13;94957.53;5028628;28;20225;-66
2021/06/21 07:42:25;;;;;;;4.13;1.97;;;;;;;22.49;70.63;94955.06;5026735;28;20801;-66
2021/06/21 07:44:54;;;;;;;2.80;1.90;;;;;;;22.59;69.45;94952.38;5026247;28;20223;-66
2021/06/21 07:47:22;;;;;;;3.27;1.80;;;;;;;22.77;70.47;94953.63;5037203;28;20230;-66
2021/06/21 07:49:50;;;;;;;2.77;1.83;;;;;;;22.84;66.81;94956.81;5037464;28;20277;-65
2021/06/21 07:52:19;;;;;;;6.90;2.00;;;;;;;22.98;67.87;94952.44;5026710;28;20247;-65
2021/06/21 07:54:49;;;;;;;7.03;2.53;;;;;;;22.87;68.31;94948.22;5049117;28;20223;-65
2021/06/21 07:57:17;;;;;;;3.50;1.40;;;;;;;22.70;69.32;94953.13;5040158;28;20325;-65
2021/06/21 07:59:45;;;;;;;3.40;2.10;;;;;;;22.78;68.58;94949.84;5044744;28;20243;-65
2021/06/21 08:02:13;;;;;;;3.37;1.50;;;;;;;23.01;68.38;94950.28;5046494;28;20230;-65
2021/06/21 08:04:42;;;;;;;3.33;2.77;;;;;;;22.91;67.56;94948.44;5045997;28;20234;-66
2021/06/21 08:07:09;;;;;;;8.20;1.60;;;;;;;23.14;66.24;94941.59;5034594;28;20756;-66
2021/06/21 08:09:39;;;;;;;2.50;1.80;;;;;;;23.28;65.80;94937.97;5027065;28;20220;-65
2021/06/21 08:12:08;;;;;;;10.37;2.27;;;;;;;23.09;68.28;94944.31;5041182;28;20285;-65
2021/06/21 08:14:38;;;;;;;6.20;2.33;;;;;;;23.28;66.66;94947.94;5042264;28;20257;-66
2021/06/21 08:17:05;;;;;;;3.38;1.67;;;;;;;23.46;65.12;94943.75;5030898;28;20314;-66
2021/06/21 08:19:34;;;;;;;5.30;2.00;;;;;;;23.63;62.54;94933.41;5046232;28;20250;-65
2021/06/21 08:22:02;;;;;;;7.60;2.50;;;;;;;23.22;66.20;94944.47;5046067;28;20692;-65
2021/06/21 08:24:30;;;;;;;3.27;1.83;;;;;;;23.38;63.60;94947.03;5038807;28;20223;-66
2021/06/21 08:27:02;;;;;;;3.60;0.93;;;;;;;23.57;63.96;94950.66;5046571;28;20643;-66
2021/06/21 08:29:30;;;;;;;6.88;1.75;;;;;;;23.41;64.17;94952.69;5043452;28;20254;-65
2021/06/21 08:31:58;;;;;;;3.15;2.17;;;;;;;23.53;63.52;94950.44;5032598;28;20251;-63
2021/06/21 08:34:27;;;;;;;5.55;2.67;;;;;;;24.16;61.92;94944.19;5040938;28;20231;-65
2021/06/21 08:36:55;;;;;;;8.65;2.83;;;;;;;23.97;63.16;94943.31;5031769;28;20314;-66
2021/06/21 08:39:23;;;;;;;1.20;1.15;;;;;;;24.22;62.46;94942.22;5031398;28;20230;-65
2021/06/21 08:41:51;;;;;;;3.03;2.28;;;;;;;24.65;62.59;94937.69;5038781;28;20689;-66
2021/06/21 08:44:20;;;;;;;9.20;2.67;;;;;;;24.90;62.21;94944.66;5045730;28;20708;-65
2021/06/21 08:46:50;;;;;;;6.30;1.58;;;;;;;25.10;58.21;94938.19;5042957;28;20230;-65
2021/06/21 08:49:20;;;;;;;3.85;2.05;;;;;;;24.98;61.18;94946.69;5025285;28;20403;-65
2021/06/21 08:51:49;;;;;;;5.60;2.13;;;;;;;24.56;61.48;94940.22;5034076;28;20838;-65
2021/06/21 08:54:17;;;;;;;2.67;1.85;;;;;;;24.94;61.84;94937.56;5041212;28;20223;-65
2021/06/21 08:56:45;;;;;;;1.48;1.00;;;;;;;25.26;57.96;94949.56;5039921;28;20307;-65
2021/06/21 08:59:13;;;;;;;2.08;1.13;;;;;;;25.47;60.95;94945.44;5041448;28;20326;-65
2021/06/21 09:01:43;;;;;;;1.98;1.75;;;;;;;25.80;57.50;94946.28;5036360;28;20326;-65
2021/06/21 09:04:12;;;;;;;4.00;1.35;;;;;;;26.22;55.17;94942.50;5037046;28;20227;-65
2021/06/21 09:06:43;;;;;;;4.38;2.03;;;;;;;26.52;54.60;94945.75;5038407;28;20231;-65
2021/06/21 09:09:11;;;;;;;2.05;1.33;;;;;;;26.80;56.34;94941.91;5031408;28;20227;-66
2021/06/21 09:11:54;;;;;;;3.80;1.35;;;;;;;26.52;56.61;94941.16;5024397;28;20605;-65
2021/06/21 09:14:33;;;;;;;3.05;1.27;;;;;;;26.57;55.74;94932.13;5032776;28;20229;-66
2021/06/21 09:17:04;;;;;;;4.75;2.15;;;;;;;26.92;54.13;94925.94;5035203;28;20223;-66
2021/06/21 09:19:45;;;;;;;5.47;1.80;;;;;;;27.01;53.36;94933.34;5043851;28;20250;-66
2021/06/21 09:22:24;;;;;;;3.35;2.17;;;;;;;27.05;56.12;94932.44;5039854;28;20700;-64
2021/06/21 09:24:52;;;;;;;2.22;1.13;;;;;;;27.35;53.31;94930.97;5030320;28;20277;-65
2021/06/21 09:27:22;;;;;;;4.55;1.65;;;;;;;27.59;53.55;94924.41;5039604;28;20247;-66
2021/06/21 09:29:52;;;;;;;3.20;1.30;;;;;;;27.78;51.55;94917.69;5035644;28;20778;-65
2021/06/21 09:32:46;;;;;;;1.65;1.55;;;;;;;27.76;52.20;94922.63;5036055;28;20253;-65
2021/06/21 09:35:40;;;;;;;3.35;2.10;;;;;;;28.23;51.44;94928.44;5038356;28;20227;-66
2021/06/21 09:38:15;;;;;;;3.92;1.42;;;;;;;28.42;52.20;94911.13;5037147;28;20289;-66
2021/06/21 09:40:50;;;;;;;4.00;1.08;;;;;;;28.29;51.42;94912.88;5037935;28;20305;-66
2021/06/21 09:43:25;;;;;;;3.80;1.83;;;;;;;27.80;53.11;94925.53;5040019;28;20218;-66
2021/06/21 09:46:20;;;;;;;2.83;2.15;;;;;;;28.40;53.59;94916.88;5039721;28;20534;-65
2021/06/21 09:48:51;;;;;;;2.75;1.50;;;;;;;28.81;52.39;94915.72;4999739;28;20243;-66
2021/06/21 09:51:27;;;;;;;2.22;0.98;;;;;;;29.00;49.13;94924.41;5039463;28;20233;-64
2021/06/21 09:53:58;;;;;;;3.08;1.30;;;;;;;28.97;48.99;94919.59;5034884;28;20222;-66
2021/06/21 09:56:33;;;;;;;5.25;1.77;;;;;;;29.07;51.94;94919.25;5036495;28;20254;-66
2021/06/21 09:59:02;;;;;;;10.40;1.85;;;;;;;28.92;47.50;94917.03;5043972;28;20233;-66
2021/06/21 10:01:31;;;;;;;4.43;1.30;;;;;;;28.77;48.01;94907.38;5038606;28;20323;-66
2021/06/21 10:04:01;;;;;;;5.90;2.58;;;;;;;28.81;49.53;94915.72;5040057;28;20229;-66
2021/06/21 10:06:38;;;;;;;5.43;2.50;;;;;;;29.19;48.21;94918.66;5042127;28;20231;-66
2021/06/21 10:09:05;;;;;;;2.50;1.35;;;;;;;29.50;48.69;94915.78;5034570;28;20218;-67
2021/06/21 10:11:36;;;;;;;1.73;1.48;;;;;;;29.91;46.07;94898.91;5041634;28;20222;-65
2021/06/21 10:14:06;;;;;;;1.48;1.08;;;;;;;30.14;48.05;94909.56;5042600;28;20481;-67
2021/06/21 10:16:35;;;;;;;4.43;2.28;;;;;;;30.27;49.72;94906.66;5036082;28;20648;-65
2021/06/21 10:19:05;;;;;;;2.03;1.35;;;;;;;30.13;48.64;94908.78;5044345;28;20219;-66
2021/06/21 10:21:35;;;;;;;6.00;1.95;;;;;;;30.28;48.46;94897.34;5041280;28;20313;-66
2021/06/21 10:24:04;;;;;;;3.45;2.25;;;;;;;30.24;48.03;94899.13;5033446;28;20634;-66
2021/06/21 10:26:32;;;;;;;6.50;2.28;;;;;;;30.38;46.10;94895.38;5054888;28;20227;-66
2021/06/21 10:29:01;;;;;;;2.92;1.10;;;;;;;30.55;45.83;94900.75;5036941;28;20708;-66
2021/06/21 10:31:30;;;;;;;1.73;0.98;;;;;;;30.65;44.96;94889.50;5033832;28;20261;-66
2021/06/21 10:34:00;;;;;;;2.60;1.27;;;;;;;31.09;47.27;94887.25;5041060;28;20231;-65
2021/06/21 10:36:42;;;;;;;2.90;0.90;;;;;;;31.45;46.90;94885.84;5033221;28;20223;-65
2021/06/21 10:39:12;;;;;;;6.25;1.02;;;;;;;31.51;43.33;94885.31;5035958;28;20557;-66
2021/06/21 10:41:43;;;;;;;2.40;1.42;;;;;;;31.75;43.58;94881.09;5044059;28;20227;-66
2021/06/21 10:44:35;;;;;;;1.52;1.42;;;;;;;31.88;42.84;94875.31;5029600;28;20223;-66
2021/06/21 10:47:24;;;;;;;7.07;1.30;;;;;;;31.79;43.02;94882.81;5032029;28;20365;-66
2021/06/21 10:49:57;;;;;;;1.08;0.93;;;;;;;30.54;42.22;94888.22;5035302;28;20233;-65
2021/06/21 10:52:38;;;;;;;4.07;1.63;;;;;;;30.65;47.72;94883.25;5037456;28;20296;-66
2021/06/21 10:55:35;;;;;;;1.63;1.27;;;;;;;30.60;43.61;94881.47;5037082;28;20653;-66
2021/06/21 10:58:05;;;;;;;3.30;1.00;;;;;;;30.45;45.39;94884.75;5028043;28;20219;-66
2021/06/21 11:00:35;;;;;;;1.63;0.50;;;;;;;29.96;43.87;94882.38;5044237;28;20238;-67
2021/06/21 11:03:25;;;;;;;2.78;1.60;;;;;;;30.49;42.91;94885.72;5034854;28;20238;-67
2021/06/21 11:05:55;;;;;;;0.88;0.88;;;;;;;29.74;44.86;94878.00;5036716;28;20231;-66
2021/06/21 11:08:26;;;;;;;3.50;0.52;;;;;;;30.29;46.74;94877.16;5038577;28;20227;-66
2021/06/21 11:10:56;;;;;;;3.53;0.63;;;;;;;30.39;44.61;94880.66;5039896;28;20302;-65
2021/06/21 11:13:43;;;;;;;6.70;2.40;;;;;;;30.00;45.93;94879.84;5033538;28;20229;-66
2021/06/21 11:16:24;;;;;;;1.13;0.73;;;;;;;30.25;46.61;94876.22;5042040;28;20311;-65
2021/06/21 11:19:36;;;;;;;2.20;1.30;;;;;;;30.45;44.26;94873.88;5042790;28;20319;-66
2021/06/21 11:22:07;;;;;;;5.50;1.38;;;;;;;30.11;44.32;94875.66;5026589;28;20647;-66
2021/06/21 11:24:57;;;;;;;2.47;0.88;;;;;;;30.37;45.20;94874.75;5041389;28;20311;-66
2021/06/21 11:27:44;;;;;;;3.95;2.30;;;;;;;29.94;46.33;94881.13;5033441;28;20284;-66
2021/06/21 11:30:40;;;;;;;4.57;1.52;;;;;;;29.99;46.53;94883.66;5034553;28;20243;-66
2021/06/21 11:33:11;;;;;;;1.55;1.15;;;;;;;30.58;45.22;94872.84;5033425;28;20588;-66
2021/06/21 11:35:53;;;;;;;1.52;1.20;;;;;;;30.62;44.38;94876.50;5037784;28;20310;-65
2021/06/21 11:38:27;;;;;;;3.92;1.30;;;;;;;30.61;47.71;94871.38;5034651;28;20310;-66
2021/06/21 11:41:26;;;;;;;4.88;1.85;;;;;;;30.80;45.86;94869.03;5045925;28;20309;-66
2021/06/21 11:43:57;;;;;;;4.30;1.42;;;;;;;30.73;45.61;94864.13;5041892;28;20227;-66
2021/06/21 11:46:44;;;;;;;2.85;1.27;;;;;;;30.94;44.21;94858.69;5039531;28;20322;-66
2021/06/21 11:49:14;;;;;;;2.47;1.45;;;;;;;31.10;43.99;94861.63;5031259;28;20665;-65
2021/06/21 11:52:01;;;;;;;3.50;1.65;;;;;;;31.10;45.72;94858.88;5045757;28;20223;-66
2021/06/21 11:54:31;;;;;;;4.05;1.52;;;;;;;30.64;43.91;94859.84;5037834;28;20227;-66